createdAt,value
2019-01-16T00:00:19.230Z,98379.78
2019-01-16T00:03:05.041Z,98369.97
2019-01-16T00:05:58.842Z,98371.63
2019-01-16T00:08:40.985Z,98367.42
2019-01-16T00:11:36.321Z,98371.56
2019-01-16T00:14:28.657Z,98372.32
2019-01-16T00:17:17.273Z,98370.45
2019-01-16T00:20:19.826Z,98357.57
2019-01-16T00:23:11.929Z,98357.67
2019-01-16T00:26:20.496Z,98355.69
2019-01-16T00:29:11.649Z,98352.02
2019-01-16T00:32:00.637Z,98346.84
2019-01-16T00:34:50.079Z,98335.55
2019-01-16T00:37:46.878Z,98336.70
2019-01-16T00:40:40.372Z,98333.19
2019-01-16T00:43:29.882Z,98333.23
2019-01-16T00:46:19.242Z,98327.69
2019-01-16T00:49:13.157Z,98327.55
2019-01-16T00:52:03.618Z,98331.07
2019-01-16T00:54:54.371Z,98326.14
2019-01-16T00:58:03.188Z,98324.92
2019-01-16T01:00:59.457Z,98325.46
2019-01-16T01:03:44.322Z,98317.41
2019-01-16T01:06:26.821Z,98318.80
2019-01-16T01:09:10.434Z,98316.97
2019-01-16T01:11:58.562Z,98319.27
2019-01-16T01:14:51.835Z,98318.94
2019-01-16T01:17:36.126Z,98318.11
2019-01-16T01:20:35.169Z,98318.94
2019-01-16T01:23:24.527Z,98322.17
2019-01-16T01:26:06.970Z,98318.35
2019-01-16T01:28:57.525Z,98315.03
2019-01-16T01:31:51.119Z,98310.67
2019-01-16T01:34:37.023Z,98314.02
2019-01-16T01:37:36.919Z,98312.05
2019-01-16T01:40:27.835Z,98318.38
2019-01-16T01:43:36.710Z,98312.34
2019-01-16T01:46:25.761Z,98318.14
2019-01-16T01:49:05.948Z,98314.62
2019-01-16T01:51:55.162Z,98310.66
2019-01-16T01:54:57.718Z,98317.06
2019-01-16T01:57:51.483Z,98321.73
2019-01-16T02:00:49.601Z,98315.17
2019-01-16T02:03:52.452Z,98319.73
2019-01-16T02:06:40.650Z,98307.84
2019-01-16T02:09:23.921Z,98314.62
2019-01-16T02:12:17.424Z,98308.76
2019-01-16T02:15:02.031Z,98305.89
2019-01-16T02:17:58.664Z,98310.22
2019-01-16T02:20:46.803Z,98306.92
2019-01-16T02:23:36.252Z,98310.95
2019-01-16T02:26:27.007Z,98304.77
2019-01-16T02:29:17.739Z,98297.08
2019-01-16T02:32:11.015Z,98294.78
2019-01-16T02:35:07.644Z,98289.99
2019-01-16T02:37:58.135Z,98290.39
2019-01-16T02:40:48.589Z,98283.52
2019-01-16T02:43:48.190Z,98284.27
2019-01-16T02:46:39.742Z,98283.12
2019-01-16T02:49:30.331Z,98278.27
2019-01-16T02:52:30.077Z,98284.20
2019-01-16T02:55:18.890Z,98278.36
2019-01-16T02:58:08.110Z,98267.48
2019-01-16T03:01:10.611Z,98258.94
2019-01-16T03:04:00.071Z,98262.87
2019-01-16T03:06:50.825Z,98261.13
2019-01-16T03:09:41.288Z,98258.39
2019-01-16T03:12:30.766Z,98255.48
2019-01-16T03:15:21.548Z,98252.82
2019-01-16T03:18:12.031Z,98255.70
2019-01-16T03:21:13.692Z,98251.31
2019-01-16T03:24:07.236Z,98245.59
2019-01-16T03:26:53.229Z,98243.22
2019-01-16T03:29:49.583Z,98237.23
2019-01-16T03:32:40.101Z,98236.85
2019-01-16T03:35:24.604Z,98230.58
2019-01-16T03:38:14.827Z,98230.07
2019-01-16T03:40:59.761Z,98231.97
2019-01-16T03:44:00.166Z,98230.44
2019-01-16T03:46:53.524Z,98213.84
2019-01-16T03:49:53.301Z,98210.16
2019-01-16T03:52:46.531Z,98205.20
2019-01-16T03:55:34.123Z,98206.03
2019-01-16T03:58:21.700Z,98200.54
2019-01-16T04:01:11.227Z,98198.73
2019-01-16T04:04:20.288Z,98195.52
2019-01-16T04:07:10.776Z,98189.34
2019-01-16T04:10:10.338Z,98188.05
2019-01-16T04:13:00.870Z,98192.45
2019-01-16T04:16:03.344Z,98182.33
2019-01-16T04:19:09.300Z,98179.81
2019-01-16T04:22:05.522Z,98187.66
2019-01-16T04:24:43.400Z,98181.81
2019-01-16T04:27:26.696Z,98185.50
2019-01-16T04:30:18.693Z,98187.85
2019-01-16T04:33:01.545Z,98182.74
2019-01-16T04:35:58.120Z,98177.67
2019-01-16T04:38:48.586Z,98175.22
2019-01-16T04:41:51.455Z,98173.70
2019-01-16T04:44:40.801Z,98164.64
2019-01-16T04:47:37.946Z,98166.02
2019-01-16T04:50:20.103Z,98161.50
2019-01-16T04:53:19.924Z,98159.92
2019-01-16T04:56:16.750Z,98161.30
2019-01-16T04:59:03.437Z,98158.64
2019-01-16T05:02:06.060Z,98151.76
2019-01-16T05:04:57.909Z,98157.22
2019-01-16T05:07:55.167Z,98153.20
2019-01-16T05:10:45.898Z,98144.83
2019-01-16T05:13:39.225Z,98150.97
2019-01-16T05:16:22.540Z,98151.15
2019-01-16T05:19:25.051Z,98142.34
2019-01-16T05:22:18.650Z,98137.39
2019-01-16T05:25:08.386Z,98132.70
2019-01-16T05:27:59.115Z,98129.58
2019-01-16T05:30:55.382Z,98117.26
2019-01-16T05:33:39.961Z,98117.41
2019-01-16T05:36:33.722Z,98108.94
2019-01-16T05:39:24.909Z,98104.30
2019-01-16T05:42:15.397Z,98104.77
2019-01-16T05:45:09.123Z,98100.42
2019-01-16T05:47:58.777Z,98100.28
2019-01-16T05:50:40.257Z,98098.77
2019-01-16T05:53:34.022Z,98105.55
2019-01-16T05:56:26.583Z,98108.49
2019-01-16T05:59:26.186Z,98115.20
2019-01-16T06:02:29.086Z,98111.45
2019-01-16T06:05:11.608Z,98105.20
2019-01-16T06:08:17.429Z,98114.96
2019-01-16T06:11:14.911Z,98101.88
2019-01-16T06:14:14.491Z,98111.39
2019-01-16T06:17:11.554Z,98099.76
2019-01-16T06:20:12.749Z,98097.78
2019-01-16T06:23:11.970Z,98105.55
2019-01-16T06:26:17.812Z,98104.02
2019-01-16T06:29:07.222Z,98103.48
2019-01-16T06:32:04.103Z,98102.27
2019-01-16T06:34:43.946Z,98095.08
2019-01-16T06:37:50.132Z,98093.49
2019-01-16T06:40:50.994Z,98096.47
2019-01-16T06:43:46.679Z,98093.56
2019-01-16T06:46:55.573Z,98091.52
2019-01-16T06:49:46.346Z,98088.69
2019-01-16T06:52:34.943Z,98090.63
2019-01-16T06:55:44.599Z,98088.47
2019-01-16T06:58:37.127Z,98073.72
2019-01-16T07:01:36.727Z,98065.43
2019-01-16T07:04:27.502Z,98072.57
2019-01-16T07:07:16.855Z,98069.45
2019-01-16T07:10:06.032Z,98059.64
2019-01-16T07:13:08.848Z,98058.29
2019-01-16T07:16:08.772Z,98063.44
2019-01-16T07:18:53.526Z,98062.75
2019-01-16T07:21:52.429Z,98052.92
2019-01-16T07:24:57.899Z,98061.72
2019-01-16T07:27:50.287Z,98059.60
2019-01-16T07:30:59.070Z,98064.77
2019-01-16T07:33:42.097Z,98063.77
2019-01-16T07:36:31.485Z,98062.26
2019-01-16T07:39:22.821Z,98057.31
2019-01-16T07:42:12.977Z,98061.50
2019-01-16T07:45:04.394Z,98055.36
2019-01-16T07:48:01.237Z,98043.07
2019-01-16T07:50:58.296Z,98048.30
2019-01-16T07:53:39.621Z,98048.55
2019-01-16T07:56:37.564Z,98037.52
2019-01-16T07:59:27.591Z,98040.78
2019-01-16T08:02:17.387Z,98040.20
2019-01-16T08:05:07.131Z,98035.84
2019-01-16T08:08:12.848Z,98040.04
2019-01-16T08:11:00.321Z,98036.84
2019-01-16T08:14:00.527Z,98046.28
2019-01-16T08:17:06.861Z,98044.75
2019-01-16T08:19:56.104Z,98043.30
2019-01-16T08:22:45.623Z,98031.83
2019-01-16T08:25:36.088Z,98045.20
2019-01-16T08:28:26.781Z,98041.31
2019-01-16T08:31:07.136Z,98036.63
2019-01-16T08:34:14.264Z,98035.61
2019-01-16T08:37:03.386Z,98022.55
2019-01-16T08:39:53.130Z,98028.69
2019-01-16T08:42:42.494Z,98025.73
2019-01-16T08:45:39.861Z,98023.62
2019-01-16T08:48:24.589Z,98022.70
2019-01-16T08:51:38.292Z,98015.00
2019-01-16T08:54:27.805Z,98006.06
2019-01-16T08:57:12.239Z,98011.56
2019-01-16T09:00:06.050Z,98014.68
2019-01-16T09:03:06.518Z,98018.80
2019-01-16T09:06:00.220Z,98014.59
2019-01-16T09:08:49.225Z,98019.78
2019-01-16T09:11:39.774Z,98023.94
2019-01-16T09:14:30.216Z,98027.34
2019-01-16T09:17:49.254Z,98026.27
2019-01-16T09:20:40.108Z,98023.38
2019-01-16T09:23:25.713Z,98025.27
2019-01-16T09:26:10.447Z,98024.11
2019-01-16T09:29:00.894Z,98020.13
2019-01-16T09:31:50.960Z,98015.08
2019-01-16T09:34:33.887Z,98009.71
2019-01-16T09:37:36.483Z,98006.86
2019-01-16T09:40:33.363Z,98001.24
2019-01-16T09:43:22.615Z,98001.37
2019-01-16T09:46:12.291Z,97999.59
2019-01-16T09:49:13.732Z,97998.00
2019-01-16T09:52:10.256Z,97999.51
2019-01-16T09:55:18.324Z,97992.50
2019-01-16T09:58:07.586Z,97976.70
2019-01-16T10:01:16.530Z,97976.13
2019-01-16T10:04:05.694Z,97970.77
2019-01-16T10:07:08.288Z,97967.80
2019-01-16T10:10:02.169Z,97966.50
2019-01-16T10:12:52.310Z,97956.89
2019-01-16T10:15:39.456Z,97948.23
2019-01-16T10:18:42.222Z,97946.02
2019-01-16T10:21:29.862Z,97937.06
2019-01-16T10:24:19.239Z,97938.47
2019-01-16T10:27:15.796Z,97940.16
2019-01-16T10:30:06.268Z,97934.38
2019-01-16T10:33:15.578Z,97926.69
2019-01-16T10:35:55.803Z,97917.91
2019-01-16T10:39:01.375Z,97923.26
2019-01-16T10:41:57.726Z,97920.67
2019-01-16T10:45:00.535Z,97924.33
2019-01-16T10:48:01.064Z,97926.06
2019-01-16T10:51:03.336Z,97919.56
2019-01-16T10:53:41.375Z,97916.80
2019-01-16T10:56:29.620Z,97908.08
2019-01-16T10:59:23.102Z,97910.39
2019-01-16T11:02:13.762Z,97903.99
2019-01-16T11:05:04.167Z,97896.74
2019-01-16T11:08:03.869Z,97884.16
2019-01-16T11:10:54.311Z,97878.59
2019-01-16T11:13:44.487Z,97870.77
2019-01-16T11:16:34.107Z,97865.03
2019-01-16T11:19:23.753Z,97871.11
2019-01-16T11:22:14.059Z,97853.02
2019-01-16T11:25:10.493Z,97852.63
2019-01-16T11:28:08.294Z,97837.59
2019-01-16T11:30:53.393Z,97833.80
2019-01-16T11:33:46.905Z,97829.88
2019-01-16T11:36:36.434Z,97836.08
2019-01-16T11:39:36.493Z,97833.08
2019-01-16T11:42:25.850Z,97821.18
2019-01-16T11:45:15.230Z,97818.41
2019-01-16T11:48:11.252Z,97814.41
2019-01-16T11:51:00.324Z,97817.95
2019-01-16T11:53:49.412Z,97817.16
2019-01-16T11:56:53.575Z,97813.78
2019-01-16T11:59:43.997Z,97805.16
2019-01-16T12:02:30.335Z,97802.78
2019-01-16T12:05:29.096Z,97794.41
2019-01-16T12:08:18.182Z,97788.59
2019-01-16T12:11:09.579Z,97776.96
2019-01-16T12:14:04.248Z,97777.47
2019-01-16T12:17:01.952Z,97768.58
2019-01-16T12:19:52.665Z,97762.11
2019-01-16T12:22:41.941Z,97759.47
2019-01-16T12:25:41.687Z,97754.88
2019-01-16T12:28:32.113Z,97748.86
2019-01-16T12:31:15.879Z,97735.25
2019-01-16T12:34:08.399Z,97723.79
2019-01-16T12:37:14.155Z,97720.78
2019-01-16T12:40:02.941Z,97719.06
2019-01-16T12:42:57.445Z,97717.08
2019-01-16T12:45:40.396Z,97718.59
2019-01-16T12:48:32.007Z,97709.34
2019-01-16T12:51:22.441Z,97709.80
2019-01-16T12:54:08.597Z,97710.21
2019-01-16T12:57:08.021Z,97700.77
2019-01-16T13:00:10.524Z,97698.09
2019-01-16T13:02:48.664Z,97692.52
2019-01-16T13:05:39.159Z,97695.19
2019-01-16T13:08:38.741Z,97695.81
2019-01-16T13:11:39.902Z,97695.40
2019-01-16T13:14:22.964Z,97689.79
2019-01-16T13:17:16.415Z,97689.17
2019-01-16T13:20:07.133Z,97680.95
2019-01-16T13:22:53.399Z,97681.67
2019-01-16T13:25:53.228Z,97674.28
2019-01-16T13:28:48.914Z,97672.42
2019-01-16T13:31:48.565Z,97663.27
2019-01-16T13:34:45.258Z,97664.36
2019-01-16T13:37:34.402Z,97660.53
2019-01-16T13:40:28.392Z,97658.34
2019-01-16T13:43:21.838Z,97651.99
2019-01-16T13:46:13.839Z,97653.08
2019-01-16T13:49:07.103Z,97646.47
2019-01-16T13:52:18.884Z,97641.48
2019-01-16T13:55:08.327Z,97634.98
2019-01-16T13:58:02.743Z,97633.41
2019-01-16T14:00:56.887Z,97629.27
2019-01-16T14:03:53.223Z,97619.31
2019-01-16T14:06:52.211Z,97620.06
2019-01-16T14:09:48.863Z,97606.42
2019-01-16T14:12:39.326Z,97604.14
2019-01-16T14:15:40.606Z,97599.52
2019-01-16T14:18:22.908Z,97600.67
2019-01-16T14:21:12.310Z,97595.95
2019-01-16T14:24:01.465Z,97592.16
2019-01-16T14:26:57.886Z,97582.28
2019-01-16T14:29:48.336Z,97580.86
2019-01-16T14:32:37.897Z,97574.57
2019-01-16T14:35:37.628Z,97581.62
2019-01-16T14:38:30.846Z,97573.48
2019-01-16T14:41:30.381Z,97568.73
2019-01-16T14:44:31.545Z,97564.83
2019-01-16T14:47:40.034Z,97558.97
2019-01-16T14:50:29.438Z,97548.17
2019-01-16T14:53:12.078Z,97550.77
2019-01-16T14:55:56.307Z,97553.38
2019-01-16T14:58:38.825Z,97547.56
2019-01-16T15:01:27.889Z,97542.69
2019-01-16T15:04:15.816Z,97538.07
2019-01-16T15:06:57.999Z,97541.59
2019-01-16T15:09:47.283Z,97542.62
2019-01-16T15:12:36.445Z,97532.11
2019-01-16T15:15:30.345Z,97528.86
2019-01-16T15:18:19.483Z,97536.66
2019-01-16T15:21:08.579Z,97530.95
2019-01-16T15:23:54.418Z,97529.49
2019-01-16T15:26:40.860Z,97522.39
2019-01-16T15:29:34.350Z,97525.30
2019-01-16T15:32:16.697Z,97525.61
2019-01-16T15:35:01.675Z,97524.63
2019-01-16T15:37:46.285Z,97525.89
2019-01-16T15:40:34.603Z,97515.88
2019-01-16T15:43:40.540Z,97509.91
2019-01-16T15:46:35.013Z,97509.13
2019-01-16T15:49:28.223Z,97501.84
2019-01-16T15:52:16.320Z,97498.36
2019-01-16T15:55:16.041Z,97499.34
2019-01-16T15:57:57.270Z,97492.69
2019-01-16T16:00:47.710Z,97498.45
2019-01-16T16:03:35.866Z,97491.42
2019-01-16T16:06:33.493Z,97484.09
2019-01-16T16:09:45.411Z,97482.11
2019-01-16T16:12:34.686Z,97478.34
2019-01-16T16:15:15.851Z,97477.00
2019-01-16T16:18:18.515Z,97463.81
2019-01-16T16:21:16.480Z,97471.20
2019-01-16T16:24:06.899Z,97463.52
2019-01-16T16:26:56.291Z,97468.61
2019-01-16T16:29:56.266Z,97469.18
2019-01-16T16:32:56.882Z,97467.25
2019-01-16T16:35:56.306Z,97463.75
2019-01-16T16:38:54.569Z,97458.73
2019-01-16T16:41:43.519Z,97454.66
2019-01-16T16:44:26.731Z,97452.73
2019-01-16T16:47:20.177Z,97456.89
2019-01-16T16:50:16.582Z,97453.36
2019-01-16T16:53:03.441Z,97450.29
2019-01-16T16:55:46.190Z,97450.39
2019-01-16T16:58:54.763Z,97447.27
2019-01-16T17:01:42.061Z,97440.80
2019-01-16T17:04:45.384Z,97441.08
2019-01-16T17:07:48.202Z,97438.23
2019-01-16T17:10:40.422Z,97431.10
2019-01-16T17:13:30.886Z,97431.98
2019-01-16T17:16:21.347Z,97436.61
2019-01-16T17:19:17.863Z,97431.72
2019-01-16T17:22:05.858Z,97430.03
2019-01-16T17:24:55.164Z,97422.46
2019-01-16T17:27:57.790Z,97429.20
2019-01-16T17:30:47.267Z,97430.05
2019-01-16T17:33:56.624Z,97429.66
2019-01-16T17:36:47.476Z,97422.89
2019-01-16T17:39:36.877Z,97415.34
2019-01-16T17:42:35.607Z,97414.75
2019-01-16T17:45:27.229Z,97408.38
2019-01-16T17:48:21.169Z,97406.07
2019-01-16T17:51:10.841Z,97406.07
2019-01-16T17:54:00.097Z,97402.94
2019-01-16T17:56:49.417Z,97395.92
2019-01-16T17:59:47.299Z,97395.92
2019-01-16T18:02:49.906Z,97392.52
2019-01-16T18:05:46.634Z,97385.38
2019-01-16T18:08:48.370Z,97387.62
2019-01-16T18:11:45.439Z,97376.53
2019-01-16T18:14:33.002Z,97381.20
2019-01-16T18:17:33.126Z,97379.47
2019-01-16T18:20:29.747Z,97374.10
2019-01-16T18:23:11.470Z,97371.23
2019-01-16T18:26:14.420Z,97375.10
2019-01-16T18:29:08.295Z,97369.49
2019-01-16T18:31:58.184Z,97369.20
2019-01-16T18:34:51.894Z,97372.79
2019-01-16T18:37:36.894Z,97373.53
2019-01-16T18:40:23.616Z,97376.28
2019-01-16T18:43:13.316Z,97370.15
2019-01-16T18:46:03.138Z,97376.39
2019-01-16T18:48:57.227Z,97377.69
2019-01-16T18:51:46.781Z,97377.86
2019-01-16T18:54:36.699Z,97378.29
2019-01-16T18:57:42.808Z,97374.12
2019-01-16T19:00:29.061Z,97373.00
2019-01-16T19:03:19.762Z,97375.75
2019-01-16T19:06:11.970Z,97372.52
2019-01-16T19:09:01.471Z,97378.23
2019-01-16T19:11:46.096Z,97375.12
2019-01-16T19:14:35.436Z,97368.68
2019-01-16T19:17:17.344Z,97372.34
2019-01-16T19:20:15.879Z,97366.27
2019-01-16T19:22:59.239Z,97361.76
2019-01-16T19:25:52.991Z,97354.57
2019-01-16T19:28:40.372Z,97351.52
2019-01-16T19:31:31.759Z,97347.99
2019-01-16T19:34:22.546Z,97349.33
2019-01-16T19:37:11.988Z,97354.84
2019-01-16T19:39:54.909Z,97345.45
2019-01-16T19:42:49.189Z,97350.53
2019-01-16T19:45:40.237Z,97356.85
2019-01-16T19:48:30.961Z,97349.75
2019-01-16T19:51:21.701Z,97351.86
2019-01-16T19:54:15.448Z,97347.98
2019-01-16T19:57:24.721Z,97344.45
2019-01-16T20:00:07.906Z,97341.23
2019-01-16T20:02:57.856Z,97342.05
2019-01-16T20:06:08.640Z,97347.02
2019-01-16T20:09:17.638Z,97350.38
2019-01-16T20:12:22.790Z,97353.97
2019-01-16T20:15:11.693Z,97348.59
2019-01-16T20:18:01.319Z,97346.58
2019-01-16T20:20:56.361Z,97340.23
2019-01-16T20:23:46.024Z,97340.95
2019-01-16T20:26:36.746Z,97345.39
2019-01-16T20:29:24.719Z,97339.42
2019-01-16T20:32:14.438Z,97338.52
2019-01-16T20:35:09.902Z,97334.53
2019-01-16T20:37:56.673Z,97334.81
2019-01-16T20:40:47.356Z,97332.67
2019-01-16T20:43:54.275Z,97332.67
2019-01-16T20:46:43.990Z,97336.70
2019-01-16T20:49:32.253Z,97328.86
2019-01-16T20:52:22.940Z,97322.83
2019-01-16T20:55:12.291Z,97323.27
2019-01-16T20:58:10.806Z,97316.22
2019-01-16T21:01:19.682Z,97311.88
2019-01-16T21:04:08.999Z,97317.67
2019-01-16T21:07:03.577Z,97315.01
2019-01-16T21:10:09.524Z,97314.38
2019-01-16T21:13:00.214Z,97312.27
2019-01-16T21:15:57.813Z,97311.97
2019-01-16T21:18:43.158Z,97310.76
2019-01-16T21:21:32.559Z,97309.72
2019-01-16T21:24:26.391Z,97307.47
2019-01-16T21:27:32.240Z,97310.95
2019-01-16T21:30:29.048Z,97298.83
2019-01-16T21:33:16.705Z,97300.12
2019-01-16T21:36:07.425Z,97297.30
2019-01-16T21:39:13.278Z,97301.25
2019-01-16T21:42:04.013Z,97290.61
2019-01-16T21:45:03.975Z,97302.37
2019-01-16T21:47:54.701Z,97297.65
2019-01-16T21:50:46.456Z,97293.59
2019-01-16T21:53:30.615Z,97297.08
2019-01-16T21:56:36.484Z,97302.15
2019-01-16T21:59:29.985Z,97296.25
2019-01-16T22:05:34.301Z,97295.13
2019-01-16T22:08:25.178Z,97294.19
2019-01-16T22:11:08.951Z,97297.16
2019-01-16T22:14:02.519Z,97292.47
2019-01-16T22:17:09.806Z,97292.63
2019-01-16T22:20:11.180Z,97288.44
2019-01-16T22:23:06.798Z,97290.16
2019-01-16T22:26:10.291Z,97291.02
2019-01-16T22:29:12.422Z,97288.60
2019-01-16T22:31:53.973Z,97287.83
2019-01-16T22:34:43.372Z,97285.42
2019-01-16T22:37:24.017Z,97283.39
2019-01-16T22:40:10.820Z,97285.80
2019-01-16T22:42:58.480Z,97281.28
2019-01-16T22:46:12.793Z,97280.73
2019-01-16T22:48:55.567Z,97280.73
2019-01-16T22:51:43.504Z,97279.52
2019-01-16T22:54:32.892Z,97281.28
2019-01-16T22:57:21.514Z,97272.18
2019-01-16T23:00:07.552Z,97267.30
2019-01-16T23:02:51.424Z,97262.20
2019-01-16T23:05:46.224Z,97262.64
2019-01-16T23:08:34.788Z,97262.47
2019-01-16T23:11:15.035Z,97265.45
2019-01-16T23:14:05.743Z,97259.48
2019-01-16T23:16:53.451Z,97263.73
2019-01-16T23:19:34.191Z,97252.06
2019-01-16T23:22:18.273Z,97254.74
2019-01-16T23:25:18.329Z,97256.64
2019-01-16T23:28:02.208Z,97247.98
2019-01-16T23:30:52.570Z,97254.72
2019-01-16T23:33:43.308Z,97250.55
2019-01-16T23:36:36.829Z,97253.38
2019-01-16T23:39:34.874Z,97256.72
2019-01-16T23:42:37.488Z,97264.23
2019-01-16T23:45:23.615Z,97257.63
2019-01-16T23:48:20.367Z,97258.20
2019-01-16T23:51:20.392Z,97251.67
2019-01-16T23:54:23.134Z,97248.50
2019-01-16T23:57:23.950Z,97246.11
